Dades meteomassalio
Diari Summary for Gener 6, 2018 Units:  English    Metric   Both
« Previous Day
Next Day »
Diari Semanal Mensual Anual Personalitzat
  Maxima: Minima: Mijana:
Temperatura: TemperatureC °F -0.6 °F 5 °F
Rosada: DewpointC °F -2.8 °F 2.5 °F
Humitat: Humidity % 70 % 84 %
Velocitat del vent: WindSpeedKMH mph 0.0 mph 5.3 mph
Racha vent: WindSpeedGustKMH mph - -
Vent:- - SW
Pressio: PressurehPa in 998.9 in -
Pluja: 33.3 in    
Historical Graphs
 
 
Tabular Data for Gener 6, 2018
Time Temperature Dew Point Pressure Wind Wind Speed Wind Gust Humidity Rainfall Rate (Hourly) solar Conditions
TemperatureC °F DewpointC °F PressurehPa in Calm     Humidity % HourlyPrecipMM in SolarRadiationWatts/m^2 W/m2 Conditions
00:04 2.2 °F -0.7 °F 1008.0 in Calm     81 % 0.0 in 0.0 W/m2 CLR
00:09 2.2 °F -0.7 °F 1008.0 in Calm     81 % 0.0 in 0.0 W/m2 CLR
00:14 1.7 °F -1.2 °F 1008.0 in Calm     81 % 0.0 in 0.0 W/m2 CLR
00:19 2.2 °F -0.7 °F 1008.0 in Calm     81 % 0.0 in 0.0 W/m2 CLR
00:24 2.2 °F -0.7 °F 1008.0 in Calm     81 % 0.0 in 0.0 W/m2 CLR
00:25 2.2 °F -0.7 °F 1007.7 in Calm     81 % 0.0 in 0.0 W/m2 CLR
00:30 1.7 °F -1.2 °F 1007.7 in Calm     81 % 0.0 in 0.0 W/m2 CLR
00:35 2.2 °F -0.7 °F 1007.7 in Calm     81 % 0.0 in 0.0 W/m2 CLR
00:36 2.2 °F -0.7 °F 1007.7 in Calm     81 % 0.0 in 0.0 W/m2 CLR
00:41 1.7 °F -1.1 °F 1007.7 in Calm     82 % 0.0 in 0.0 W/m2 CLR
00:44 1.7 °F -1.1 °F 1007.7 in Calm     82 % 0.0 in 0.0 W/m2 CLR
00:46 1.7 °F -1.1 °F 1007.7 in Calm     82 % 0.0 in 0.0 W/m2 CLR
00:51 1.7 °F -1.1 °F 1007.7 in Calm     82 % 0.0 in 0.0 W/m2 CLR
00:53 1.7 °F -1.1 °F 1007.7 in Calm     82 % 0.0 in 0.0 W/m2 CLR
00:58 1.7 °F -1.1 °F 1007.7 in Calm     82 % 0.0 in 0.0 W/m2 CLR
00:59 1.7 °F -1.1 °F 1007.7 in Calm     82 % 0.0 in 0.0 W/m2 CLR
01:05 1.7 °F -0.9 °F 1007.3 in Calm     83 % 0.0 in 0.0 W/m2 CLR
01:11 1.7 °F -0.9 °F 1007.3 in Calm     83 % 0.0 in 0.0 W/m2 CLR
01:17 1.7 °F -0.9 °F 1007.0 in Calm     83 % 0.0 in 0.0 W/m2 CLR
01:19 1.7 °F -0.9 °F 1007.0 in Calm     83 % 0.0 in 0.0 W/m2 CLR
01:25 1.1 °F -1.3 °F 1007.0 in Calm     84 % 0.0 in 0.0 W/m2 CLR
01:29 1.1 °F -1.3 °F 1007.0 in Calm     84 % 0.0 in 0.0 W/m2 CLR
01:33 1.1 °F -1.3 °F 1006.7 in Calm     84 % 0.0 in 0.0 W/m2 CLR
01:35 1.1 °F -1.3 °F 1006.7 in Calm     84 % 0.0 in 0.0 W/m2 CLR
01:40 1.1 °F -1.3 °F 1006.7 in Calm     84 % 0.0 in 0.0 W/m2 CLR
01:45 1.1 °F -1.1 °F 1006.7 in Calm     85 % 0.0 in 0.0 W/m2 CLR
01:48 1.1 °F -1.1 °F 1006.3 in Calm     85 % 0.0 in 0.0 W/m2 CLR
01:53 1.1 °F -1.1 °F 1006.3 in Calm     85 % 0.0 in 0.0 W/m2 CLR
02:03 1.1 °F -1.3 °F 1006.3 in Calm     84 % 0.0 in 0.0 W/m2 CLR
02:08 1.1 °F -1.3 °F 1006.3 in Calm     84 % 0.0 in 0.0 W/m2 CLR
02:12 1.1 °F -1.3 °F 1006.3 in Calm     84 % 0.0 in 0.0 W/m2 CLR
02:17 0.6 °F -1.8 °F 1006.3 in Calm     84 % 0.0 in 0.0 W/m2 CLR
02:22 0.6 °F -1.7 °F 1006.3 in Calm     85 % 0.0 in 0.0 W/m2 CLR
02:24 1.1 °F -1.1 °F 1006.3 in Calm     85 % 0.0 in 0.0 W/m2 CLR
02:29 0.6 °F -1.7 °F 1006.3 in Calm     85 % 0.0 in 0.0 W/m2 CLR
02:31 0.6 °F -1.7 °F 1006.3 in Calm     85 % 0.0 in 0.0 W/m2 CLR
02:34 0.6 °F -1.7 °F 1006.3 in Calm     85 % 0.0 in 0.0 W/m2 CLR
02:39 0.6 °F -1.5 °F 1006.3 in Calm     86 % 0.0 in 0.0 W/m2 CLR
02:44 0.6 °F -1.5 °F 1006.3 in Calm     86 % 0.0 in 0.0 W/m2 CLR
02:45 0.6 °F -1.5 °F 1006.3 in Calm     86 % 0.0 in 0.0 W/m2 CLR
02:50 0.6 °F -1.5 °F 1006.3 in Calm     86 % 0.0 in 0.0 W/m2 CLR
02:51 0.6 °F -1.5 °F 1006.3 in Calm     86 % 0.0 in 0.0 W/m2 CLR
02:56 0.6 °F -1.5 °F 1006.3 in Calm     86 % 0.0 in 0.0 W/m2 CLR
03:04 0.6 °F -1.5 °F 1006.0 in Calm     86 % 0.0 in 0.0 W/m2 CLR
03:09 0.6 °F -1.3 °F 1006.0 in Calm     87 % 0.0 in 0.0 W/m2 CLR
03:14 0.6 °F -1.5 °F 1005.6 in Calm     86 % 0.0 in 0.0 W/m2 CLR
03:19 0.6 °F -1.5 °F 1005.6 in Calm     86 % 0.0 in 0.0 W/m2 CLR
03:20 0.6 °F -1.5 °F 1005.6 in Calm     86 % 0.0 in 0.0 W/m2 CLR
03:25 0.6 °F -1.3 °F 1005.6 in Calm     87 % 0.0 in 0.0 W/m2 CLR
03:26 0.6 °F -1.3 °F 1005.6 in Calm     87 % 0.0 in 0.0 W/m2 CLR
03:31 0.6 °F -1.2 °F 1005.6 in Calm     88 % 0.0 in 0.0 W/m2 CLR
03:36 0.6 °F -1.5 °F 1005.3 in Calm     86 % 0.0 in 0.0 W/m2 CLR
03:39 0.6 °F -1.5 °F 1005.3 in Calm     86 % 0.0 in 0.0 W/m2 CLR
03:44 0.6 °F -1.5 °F 1005.3 in Calm     86 % 0.0 in 0.0 W/m2 CLR
03:49 0.6 °F -1.2 °F 1005.3 in Calm     88 % 0.0 in 0.0 W/m2 CLR
03:54 0.6 °F -1.3 °F 1005.3 in Calm     87 % 0.0 in 0.0 W/m2 CLR
03:57 0.6 °F -1.5 °F 1005.0 in Calm     86 % 0.0 in 0.0 W/m2 CLR
04:03 0.6 °F -1.5 °F 1005.0 in Calm     86 % 0.0 in 0.0 W/m2 CLR
04:08 0.0 °F -1.9 °F 1005.0 in Calm     87 % 0.0 in 0.0 W/m2 CLR
04:13 0.0 °F -1.9 °F 1004.6 in Calm     87 % 0.0 in 0.0 W/m2 CLR
04:18 0.0 °F -1.9 °F 1004.6 in Calm     87 % 0.0 in 0.0 W/m2 CLR
04:23 0.0 °F -1.9 °F 1004.6 in Calm     87 % 0.0 in 0.0 W/m2 CLR
04:28 0.0 °F -2.2 °F 1004.3 in Calm     85 % 0.0 in 0.0 W/m2 CLR
04:33 -0.6 °F -2.8 °F 1004.3 in Calm     85 % 0.0 in 0.0 W/m2 CLR
04:38 0.0 °F -2.1 °F 1004.3 in Calm     86 % 0.0 in 0.0 W/m2 CLR
04:42 0.0 °F -1.9 °F 1004.3 in Calm     87 % 0.0 in 0.0 W/m2 CLR
04:43 0.0 °F -1.8 °F 1004.3 in Calm     88 % 0.0 in 0.0 W/m2 CLR
04:48 0.6 °F -1.5 °F 1004.3 in Calm     86 % 0.0 in 0.0 W/m2 CLR
04:53 0.6 °F -1.5 °F 1004.3 in Calm     86 % 0.0 in 0.0 W/m2 CLR
04:55 0.6 °F -1.5 °F 1004.3 in Calm     86 % 0.0 in 0.0 W/m2 CLR
05:00 0.6 °F -1.7 °F 1003.9 in Calm     85 % 0.0 in 0.0 W/m2 CLR
05:03 0.6 °F -1.5 °F 1003.9 in Calm     86 % 0.0 in 0.0 W/m2 CLR
05:08 0.0 °F -1.9 °F 1004.3 in Calm     87 % 0.0 in 0.0 W/m2 CLR
05:13 0.0 °F -2.1 °F 1004.3 in Calm     86 % 0.0 in 0.0 W/m2 CLR
05:14 0.0 °F -2.1 °F 1004.3 in Calm     86 % 0.0 in 0.0 W/m2 CLR
05:19 0.0 °F -2.1 °F 1003.9 in Calm     86 % 0.0 in 0.0 W/m2 CLR
05:24 0.0 °F -2.1 °F 1003.9 in Calm     86 % 0.0 in 0.0 W/m2 CLR
05:30 0.0 °F -1.9 °F 1003.9 in Calm     87 % 0.0 in 0.0 W/m2 CLR
05:35 0.6 °F -1.3 °F 1003.9 in Calm     87 % 0.0 in 0.0 W/m2 CLR
05:36 0.6 °F -1.3 °F 1003.9 in Calm     87 % 0.0 in 0.0 W/m2 CLR
05:41 0.6 °F -1.2 °F 1003.9 in Calm     88 % 0.0 in 0.0 W/m2 CLR
05:42 0.6 °F -1.2 °F 1003.9 in Calm     88 % 0.0 in 0.0 W/m2 CLR
05:47 1.1 °F -0.7 °F 1003.9 in Calm     88 % 0.0 in 0.0 W/m2 CLR
05:48 1.1 °F -0.7 °F 1003.9 in Calm     88 % 0.0 in 0.0 W/m2 CLR
05:53 1.7 °F -0.1 °F 1003.9 in Calm     88 % 0.0 in 0.0 W/m2 CLR
05:55 1.7 °F -0.1 °F 1003.9 in Calm     88 % 0.0 in 0.0 W/m2 CLR
06:00 1.7 °F -0.3 °F 1003.6 in Calm     87 % 0.0 in 0.0 W/m2 CLR
06:01 1.7 °F -0.3 °F 1003.6 in Calm     87 % 0.0 in 0.0 W/m2 CLR
06:02 1.7 °F -0.3 °F 1003.6 in Calm     87 % 0.0 in 0.0 W/m2 CLR
06:07 1.7 °F -0.3 °F 1003.6 in Calm     87 % 0.0 in 0.0 W/m2 CLR
06:11 1.7 °F -0.4 °F 1003.6 in Calm     86 % 0.0 in 0.0 W/m2 CLR
06:15 1.7 °F -0.3 °F 1003.6 in Calm     87 % 0.0 in 0.0 W/m2 CLR
06:20 1.7 °F -0.1 °F 1003.6 in Calm     88 % 0.0 in 0.0 W/m2 CLR
06:21 1.7 °F -0.1 °F 1003.6 in Calm     88 % 0.0 in 0.0 W/m2 CLR
06:26 1.7 °F -0.3 °F 1003.6 in Calm     87 % 0.0 in 0.0 W/m2 CLR
06:31 1.7 °F -0.3 °F 1003.6 in Calm     87 % 0.0 in 0.0 W/m2 CLR
06:36 1.7 °F -0.4 °F 1003.3 in Calm     86 % 0.0 in 0.0 W/m2 CLR
06:41 1.7 °F -0.3 °F 1003.6 in Calm     87 % 0.0 in 0.0 W/m2 CLR
06:46 1.7 °F -0.4 °F 1003.6 in Calm     86 % 0.0 in 0.0 W/m2 CLR
06:51 1.7 °F -0.4 °F 1003.6 in Calm     86 % 0.0 in 0.0 W/m2 CLR
06:56 1.7 °F -0.6 °F 1003.3 in Calm     85 % 0.0 in 0.0 W/m2 CLR
06:59 1.7 °F -0.6 °F 1003.6 in Calm     85 % 0.0 in 0.0 W/m2 CLR
07:04 2.2 °F -0.1 °F 1003.3 in Calm     85 % 0.0 in 0.0 W/m2 CLR
07:09 1.7 °F -0.7 °F 1003.3 in Calm     84 % 0.0 in 0.0 W/m2 CLR
07:13 2.2 °F -0.2 °F 1003.6 in Calm     84 % 0.0 in 0.0 W/m2 CLR
07:16 2.2 °F -0.2 °F 1003.6 in Calm     84 % 0.0 in 0.0 W/m2 CLR
07:19 1.7 °F -0.6 °F 1003.3 in Calm     85 % 0.0 in 0.0 W/m2 CLR
07:25 1.7 °F -0.7 °F 1003.3 in Calm     84 % 0.0 in 0.0 W/m2 CLR
07:26 1.7 °F -0.7 °F 1003.3 in Calm     84 % 0.0 in 0.0 W/m2 CLR
07:31 1.7 °F -0.9 °F 1003.3 in Calm     83 % 0.0 in 0.0 W/m2 CLR
07:37 1.7 °F -1.1 °F 1003.3 in Calm     82 % 0.0 in 0.0 W/m2 CLR
07:41 2.2 °F -0.6 °F 1003.3 in Calm     82 % 0.0 in 0.0 W/m2 CLR
07:46 2.2 °F -0.2 °F 1003.3 in Calm     84 % 0.0 in 0.0 W/m2 CLR
07:47 2.2 °F -0.2 °F 1003.3 in Calm     84 % 0.0 in 0.0 W/m2 CLR
07:49 2.2 °F -0.2 °F 1003.3 in Calm     84 % 0.0 in 0.0 W/m2 CLR
07:54 2.2 °F -0.1 °F 1002.9 in Calm     85 % 0.0 in 0.0 W/m2 CLR
07:56 2.2 °F -0.2 °F 1002.9 in Calm     84 % 0.0 in 0.0 W/m2 CLR
08:01 2.2 °F -0.2 °F 1002.9 in Calm     84 % 0.0 in 0.0 W/m2 CLR
08:02 2.2 °F -0.2 °F 1002.9 in Calm     84 % 0.0 in 0.0 W/m2 CLR
08:04 2.2 °F -0.2 °F 1003.3 in Calm     84 % 0.0 in 0.0 W/m2 CLR
08:08 2.2 °F -0.2 °F 1002.9 in Calm     84 % 0.0 in 0.0 W/m2 CLR
08:13 2.2 °F -0.2 °F 1003.3 in Calm     84 % 0.0 in 0.0 W/m2 CLR
08:18 2.2 °F -0.2 °F 1003.3 in Calm     84 % 0.0 in 0.0 W/m2 OVC
08:21 2.8 °F 0.3 °F 1003.3 in Calm     84 % 0.0 in 0.0 W/m2 OVC
08:26 2.8 °F 0.3 °F 1003.3 in Calm     84 % 0.0 in 9.0 W/m2 BKN
08:32 2.8 °F 0.2 °F 1003.6 in Calm     83 % 0.0 in 5.0 W/m2 OVC
08:34 2.8 °F 0.2 °F 1003.6 in Calm     83 % 0.0 in 5.0 W/m2 OVC
08:39 2.8 °F 0.2 °F 1003.6 in Calm     83 % 0.0 in 9.0 W/m2 BKN
08:44 2.8 °F 0.2 °F 1003.6 in Calm     83 % 0.0 in 11.0 W/m2 BKN
08:45 2.8 °F 0.2 °F 1003.6 in Calm     83 % 0.0 in 11.0 W/m2 BKN
08:50 3.3 °F 0.7 °F 1003.6 in Calm     83 % 0.0 in 14.0 W/m2 BKN
08:51 3.3 °F 0.7 °F 1003.6 in Calm     83 % 0.0 in 14.0 W/m2 BKN
08:56 3.3 °F 0.6 °F 1003.6 in Calm     82 % 0.0 in 19.0 W/m2 BKN
09:01 3.3 °F 0.6 °F 1003.6 in Calm     82 % 0.0 in 21.0 W/m2 BKN
09:06 3.3 °F 0.6 °F 1003.9 in Calm     82 % 0.0 in 21.0 W/m2 BKN
09:11 3.3 °F 0.6 °F 1003.9 in Calm     82 % 0.0 in 25.0 W/m2 BKN
09:13 3.3 °F 0.7 °F 1003.9 in Calm     83 % 0.0 in 28.0 W/m2 BKN
09:18 3.3 °F 0.7 °F 1003.9 in Calm     83 % 0.0 in 35.0 W/m2 BKN
09:20 3.3 °F 0.7 °F 1003.9 in Calm     83 % 0.0 in 39.0 W/m2 BKN
09:25 3.9 °F 1.4 °F 1003.9 in Calm     84 % 0.0 in 49.0 W/m2 BKN
09:28 3.9 °F 1.4 °F 1003.9 in Calm     84 % 0.0 in 58.0 W/m2 BKN
09:33 3.9 °F 1.6 °F 1004.3 in Calm     85 % 0.0 in 77.0 W/m2 SCT
09:40 4.4 °F 2.2 °F 1004.3 in Calm     85 % 0.0 in 100.0 W/m2 FEW
09:45 4.4 °F 2.2 °F 1004.3 in Calm     85 % 0.0 in 91.0 W/m2 CLR
09:50 5.0 °F 2.7 °F 1004.3 in Calm     85 % 0.0 in 67.0 W/m2 CLR
09:55 5.6 °F 3.2 °F 1004.3 in Calm     85 % 0.0 in 56.0 W/m2 FEW
09:59 5.6 °F 3.2 °F 1004.3 in Calm     85 % 0.0 in 60.0 W/m2 SCT
10:01 5.6 °F 3.2 °F 1004.3 in Calm     85 % 0.0 in 67.0 W/m2 SCT
10:06 5.6 °F 3.2 °F 1004.3 in Calm     85 % 0.0 in 76.0 W/m2 FEW
10:11 5.6 °F 3.2 °F 1004.3 in Calm     85 % 0.0 in 70.0 W/m2 FEW
10:16 5.6 °F 3.2 °F 1004.3 in Calm     85 % 0.0 in 84.0 W/m2 FEW
10:20 5.6 °F 3.2 °F 1004.3 in Calm     85 % 0.0 in 88.0 W/m2 FEW
10:25 5.6 °F 3.2 °F 1004.3 in Calm     85 % 0.0 in 93.0 W/m2 CLR
10:30 5.6 °F 3.4 °F 1004.3 in Calm     86 % 0.0 in 183.0 W/m2 CLR
10:32 5.6 °F 3.4 °F 1004.6 in Calm     86 % 0.0 in 290.0 W/m2 CLR
10:37 6.1 °F 3.8 °F 1004.6 in Calm     85 % 0.0 in 223.0 W/m2 CLR
10:39 6.1 °F 3.8 °F 1004.6 in NNW 12.9 mph 12.9 mph 85 % 0.0 in 350.0 W/m2 CLR
10:44 6.7 °F 4.2 °F 1004.6 in NNW 9.3 mph 9.3 mph 84 % 0.0 in 366.0 W/m2 CLR
10:49 6.7 °F 4.0 °F 1004.6 in North 13.0 mph 13.0 mph 83 % 0.0 in 392.0 W/m2 CLR
10:54 7.2 °F 4.3 °F 1004.6 in North 9.3 mph 9.3 mph 82 % 0.0 in 429.0 W/m2 CLR
10:58 7.8 °F 4.7 °F 1004.6 in NNW 13.0 mph 13.0 mph 81 % 0.0 in 406.0 W/m2 CLR
11:03 7.8 °F 4.6 °F 1004.6 in Calm     80 % 0.0 in 424.0 W/m2 CLR
11:08 7.8 °F 4.6 °F 1004.6 in Calm     80 % 0.0 in 283.0 W/m2 CLR
11:13 8.3 °F 4.9 °F 1005.0 in Calm     79 % 0.0 in 388.0 W/m2 CLR
11:19 8.3 °F 4.7 °F 1005.0 in Calm     78 % 0.0 in 403.0 W/m2 CLR
11:20 8.3 °F 4.7 °F 1005.0 in North 3.2 mph 3.2 mph 78 % 0.0 in 397.0 W/m2 CLR
11:25 8.9 °F 5.1 °F 1004.6 in NNW 3.7 mph 3.7 mph 77 % 0.0 in 262.0 W/m2 CLR
11:26 8.9 °F 5.1 °F 1005.0 in NNW 5.6 mph 5.6 mph 77 % 0.0 in 229.0 W/m2 CLR
11:31 8.9 °F 5.1 °F 1005.0 in NW 13.0 mph 13.0 mph 77 % 0.0 in 213.0 W/m2 CLR
11:36 8.3 °F 4.6 °F 1005.0 in NW 13.0 mph 13.0 mph 77 % 0.0 in 274.0 W/m2 CLR
11:44 8.3 °F 4.7 °F 1005.0 in NNW 14.8 mph 14.8 mph 78 % 0.0 in 373.0 W/m2 CLR
11:48 8.3 °F 4.6 °F 1005.0 in NNW 18.5 mph 18.5 mph 77 % 0.0 in 373.0 W/m2 CLR
11:53 8.3 °F 4.6 °F 1005.0 in NNW 13.0 mph 13.0 mph 77 % 0.0 in 362.0 W/m2 CLR
11:58 8.3 °F 4.6 °F 1004.6 in NW 5.6 mph   77 % 0.0 in 367.0 W/m2 CLR
12:06 8.3 °F 4.3 °F 1004.3 in Calm     76 % 0.0 in 475.0 W/m2 CLR
12:07 8.3 °F 4.3 °F 1004.3 in Calm     76 % 0.0 in 475.0 W/m2 CLR
12:12 8.9 °F 4.9 °F 1004.3 in Calm     76 % 0.0 in 397.0 W/m2 CLR
12:15 8.9 °F 4.7 °F 1003.9 in Calm     75 % 0.0 in 350.0 W/m2 CLR
12:20 8.9 °F 4.7 °F 1003.9 in Calm     75 % 0.0 in 381.0 W/m2 CLR
12:25 8.9 °F 4.5 °F 1003.9 in Calm     74 % 0.0 in 343.0 W/m2 CLR
12:30 8.9 °F 4.5 °F 1003.9 in Calm     74 % 0.0 in 357.0 W/m2 CLR
12:35 8.9 °F 4.5 °F 1003.9 in Calm     74 % 0.0 in 341.0 W/m2 CLR
12:40 9.4 °F 4.8 °F 1003.9 in Calm     73 % 0.0 in 339.0 W/m2 CLR
12:41 9.4 °F 4.8 °F 1003.9 in Calm     73 % 0.0 in 315.0 W/m2 CLR
12:46 9.4 °F 4.8 °F 1003.6 in Calm     73 % 0.0 in 287.0 W/m2 CLR
12:49 9.4 °F 4.8 °F 1003.6 in Calm     73 % 0.0 in 241.0 W/m2 CLR
12:54 9.4 °F 4.7 °F 1003.6 in Calm     72 % 0.0 in 127.0 W/m2 CLR
12:57 9.4 °F 4.8 °F 1003.6 in Calm     73 % 0.0 in 137.0 W/m2 CLR
13:02 9.4 °F 4.7 °F 1003.6 in Calm     72 % 0.0 in 135.0 W/m2 CLR
13:05 9.4 °F 4.7 °F 1003.6 in Calm     72 % 0.0 in 132.0 W/m2 CLR
13:19 9.4 °F 5.1 °F 1003.3 in Calm     74 % 0.0 in 360.0 W/m2 CLR
13:21 9.4 °F 5.1 °F 1003.3 in Calm     74 % 0.0 in 411.0 W/m2 CLR
13:26 10.0 °F 5.4 °F 1003.3 in Calm     73 % 0.0 in 427.0 W/m2 CLR
13:27 10.0 °F 5.4 °F 1003.3 in Calm     73 % 0.0 in 427.0 W/m2 CLR
13:32 10.0 °F 5.2 °F 1002.9 in Calm     72 % 0.0 in 418.0 W/m2 CLR
13:37 10.0 °F 4.8 °F 1002.9 in Calm     70 % 0.0 in 287.0 W/m2 CLR
13:42 10.0 °F 5.0 °F 1002.9 in Calm     71 % 0.0 in 346.0 W/m2 CLR
13:47 10.0 °F 5.0 °F 1002.6 in NE 1.9 mph 1.9 mph 71 % 0.0 in 417.0 W/m2 CLR
13:52 10.0 °F 4.8 °F 1002.3 in East 14.5 mph 14.5 mph 70 % 0.0 in 417.0 W/m2 CLR
13:57 10.0 °F 4.8 °F 1001.9 in East 18.5 mph 18.5 mph 70 % 0.0 in 446.0 W/m2 CLR
14:02 10.0 °F 4.8 °F 1001.9 in East 18.5 mph 18.5 mph 70 % 0.0 in 406.0 W/m2 CLR
14:04 10.0 °F 4.8 °F 1001.9 in ENE 16.7 mph 16.7 mph 70 % 0.0 in 392.0 W/m2 CLR
14:06 10.0 °F 5.0 °F 1001.9 in ENE 18.5 mph 18.5 mph 71 % 0.0 in 394.0 W/m2 CLR
14:11 10.0 °F 5.0 °F 1001.9 in ENE 18.5 mph 18.5 mph 71 % 0.0 in 406.0 W/m2 CLR
14:16 10.0 °F 4.8 °F 1001.9 in ENE 18.5 mph 18.5 mph 70 % 0.0 in 371.0 W/m2 CLR
14:18 10.0 °F 4.8 °F 1001.9 in ENE 16.7 mph 16.7 mph 70 % 0.0 in 392.0 W/m2 CLR
14:23 10.0 °F 5.0 °F 1001.9 in ENE 12.9 mph 12.9 mph 71 % 0.0 in 162.0 W/m2 CLR
14:27 10.0 °F 5.0 °F 1001.9 in ENE 13.0 mph 13.0 mph 71 % 0.0 in 190.0 W/m2 CLR
14:32 10.0 °F 5.2 °F 1001.9 in East 9.7 mph 9.7 mph 72 % 0.0 in 162.0 W/m2 CLR
14:33 10.0 °F 5.2 °F 1001.9 in ENE 13.0 mph 13.0 mph 72 % 0.0 in 167.0 W/m2 CLR
14:38 10.0 °F 5.2 °F 1001.9 in ENE 13.0 mph 13.0 mph 72 % 0.0 in 146.0 W/m2 CLR
14:43 10.6 °F 5.7 °F 1001.6 in Calm     72 % 0.0 in 359.0 W/m2 CLR
14:53 10.6 °F 5.5 °F 1001.6 in ENE 9.3 mph 9.3 mph 71 % 0.0 in 174.0 W/m2 CLR
14:58 10.6 °F 5.7 °F 1001.6 in ENE 16.7 mph 16.7 mph 72 % 0.0 in 176.0 W/m2 CLR
15:03 10.6 °F 5.7 °F 1001.2 in East 14.8 mph 14.8 mph 72 % 0.0 in 190.0 W/m2 CLR
15:06 10.6 °F 5.7 °F 1001.2 in ENE 16.7 mph 16.7 mph 72 % 0.0 in 192.0 W/m2 CLR
15:11 10.6 °F 5.7 °F 1000.9 in East 14.8 mph 14.8 mph 72 % 0.0 in 209.0 W/m2 CLR
15:16 11.1 °F 6.3 °F 1000.9 in East 1.9 mph 1.9 mph 72 % 0.0 in 188.0 W/m2 CLR
15:21 11.1 °F 6.3 °F 1000.9 in East 3.7 mph 3.7 mph 72 % 0.0 in 181.0 W/m2 CLR
15:26 11.1 °F 6.3 °F 1000.9 in East 3.7 mph 3.7 mph 72 % 0.0 in 171.0 W/m2 CLR
15:36 11.1 °F 6.3 °F 1000.9 in NE 14.8 mph 14.8 mph 72 % 0.0 in 118.0 W/m2 CLR
15:42 11.1 °F 6.3 °F 1000.9 in ENE 11.1 mph   72 % 0.0 in 121.0 W/m2 CLR
15:45 11.1 °F 6.3 °F 1000.6 in ENE 14.5 mph 14.5 mph 72 % 0.0 in 149.0 W/m2 CLR
15:48 11.1 °F 6.3 °F 1000.6 in ENE 5.6 mph   72 % 0.0 in 153.0 W/m2 CLR
15:53 11.1 °F 6.3 °F 1000.6 in NE 14.8 mph 14.8 mph 72 % 0.0 in 125.0 W/m2 CLR
15:58 10.6 °F 5.9 °F 1000.6 in Calm     73 % 0.0 in 105.0 W/m2 CLR
15:59 10.6 °F 5.9 °F 1000.6 in Calm     73 % 0.0 in 105.0 W/m2 CLR
16:03 10.6 °F 5.9 °F 1000.6 in Calm     73 % 0.0 in 70.0 W/m2 CLR
16:08 10.6 °F 5.9 °F 1000.6 in ENE 14.8 mph 14.8 mph 73 % 0.0 in 58.0 W/m2 FEW
16:10 10.6 °F 5.9 °F 1000.6 in ENE 5.6 mph   73 % 0.0 in 46.0 W/m2 FEW
16:14 10.6 °F 6.3 °F 1000.6 in Calm     75 % 0.0 in 33.0 W/m2 SCT
16:19 10.0 °F 6.2 °F 1000.2 in ENE 9.7 mph 9.7 mph 77 % 0.0 in 35.0 W/m2 BKN
16:24 10.0 °F 6.7 °F 1000.2 in NE 7.4 mph 7.4 mph 80 % 0.0 in 19.0 W/m2 BKN
16:27 10.0 °F 6.7 °F 1000.2 in Calm     80 % 0.0 in 14.0 W/m2 BKN
16:28 10.0 °F 6.9 °F 1000.2 in Calm     81 % 0.0 in 14.0 W/m2 BKN
16:33 9.4 °F 6.7 °F 999.9 in Calm     83 % 0.3 in 18.0 W/m2 RA
16:36 9.4 °F 6.9 °F 999.9 in Calm     84 % 0.3 in 11.0 W/m2 BKN
16:42 9.4 °F 7.1 °F 999.9 in Calm     85 % 1.3 in 7.0 W/m2 RA
16:45 8.9 °F 6.7 °F 999.9 in Calm     86 % 1.5 in 7.0 W/m2 RA
16:51 8.9 °F 7.0 °F 999.9 in NNW 13.0 mph 13.0 mph 88 % 1.8 in 5.0 W/m2 RA
16:55 8.9 °F 7.0 °F 999.9 in WNW 11.1 mph 11.1 mph 88 % 2.0 in 0.0 W/m2 RA
17:00 9.4 °F 7.7 °F 999.5 in Calm     89 % 2.3 in 5.0 W/m2 RA
17:05 9.4 °F 7.7 °F 999.5 in North 14.8 mph 14.8 mph 89 % 2.3 in 0.0 W/m2
17:10 9.4 °F 7.7 °F 999.9 in North 13.0 mph 13.0 mph 89 % 2.3 in 0.0 W/m2 CLR
17:15 9.4 °F 7.7 °F 999.5 in North 14.5 mph 14.5 mph 89 % 2.3 in 0.0 W/m2 OVC
17:20 8.9 °F 7.0 °F 999.5 in NNW 11.1 mph 11.1 mph 88 % 2.3 in 0.0 W/m2 OVC
17:23 8.9 °F 7.2 °F 999.5 in NNW 14.8 mph 14.8 mph 89 % 2.3 in 0.0 W/m2 RA
17:28 8.3 °F 6.6 °F 999.9 in North 18.5 mph 18.5 mph 89 % 2.5 in 0.0 W/m2 RA
17:30 8.3 °F 6.6 °F 999.9 in North 16.7 mph 16.7 mph 89 % 2.8 in 0.0 W/m2 RA
17:35 8.3 °F 6.6 °F 1000.2 in Calm     89 % 3.3 in 0.0 W/m2 RA
17:40 8.3 °F 6.8 °F 999.9 in Calm     90 % 3.6 in 0.0 W/m2 RA
17:45 7.8 °F 6.2 °F 1000.2 in ENE 5.6 mph   90 % 3.3 in 0.0 W/m2 RA
17:50 7.8 °F 6.2 °F 999.9 in North 12.9 mph 12.9 mph 90 % 3.3 in 0.0 W/m2 RA
17:55 7.8 °F 6.2 °F 999.2 in North 18.5 mph 18.5 mph 90 % 4.1 in 0.0 W/m2 RA
17:58 7.8 °F 6.2 °F 999.5 in NW 25.9 mph 25.9 mph 90 % 4.1 in 0.0 W/m2 RA
18:03 7.8 °F 6.4 °F 999.5 in WSW 35.2 mph 35.2 mph 91 % 4.3 in 0.0 W/m2 RA
18:07 7.8 °F 6.4 °F 999.5 in WNW 13.0 mph 13.0 mph 91 % 5.3 in 0.0 W/m2 RA
18:12 7.8 °F 6.4 °F 999.5 in West 13.0 mph 13.0 mph 91 % 7.1 in 0.0 W/m2 RA
18:14 7.2 °F 5.8 °F 999.5 in NW 14.8 mph 14.8 mph 91 % 7.6 in 0.0 W/m2 RA
18:19 7.2 °F 5.8 °F 999.5 in WNW 14.8 mph 14.8 mph 91 % 8.4 in 0.0 W/m2 RA
18:24 7.2 °F 5.8 °F 999.5 in NW 16.7 mph 16.7 mph 91 % 8.9 in 0.0 W/m2 RA
18:29 7.2 °F 5.8 °F 999.5 in West 18.5 mph 18.5 mph 91 % 8.6 in 0.0 W/m2 RA
18:34 7.2 °F 5.8 °F 999.5 in NW 16.7 mph 16.7 mph 91 % 8.6 in 0.0 W/m2 RA
18:36 7.2 °F 5.8 °F 999.2 in NNW 18.5 mph 18.5 mph 91 % 8.4 in 0.0 W/m2 RA
18:41 7.2 °F 5.8 °F 999.2 in NW 18.5 mph 18.5 mph 91 % 7.6 in 0.0 W/m2 RA
18:43 7.2 °F 5.8 °F 999.2 in NW 9.3 mph 9.3 mph 91 % 7.6 in 0.0 W/m2 RA
18:44 7.2 °F 5.8 °F 999.2 in WNW 12.9 mph 12.9 mph 91 % 7.4 in 0.0 W/m2 RA
18:49 7.2 °F 5.8 °F 999.5 in WNW 18.5 mph 18.5 mph 91 % 7.9 in 0.0 W/m2 RA
18:54 6.7 °F 5.3 °F 999.2 in NNW 25.9 mph 25.9 mph 91 % 7.9 in 0.0 W/m2 RA
18:55 6.7 °F 5.3 °F 999.2 in NNW 20.4 mph 20.4 mph 91 % 7.9 in 0.0 W/m2 RA
19:00 6.7 °F 5.3 °F 998.9 in NNW 22.2 mph 22.2 mph 91 % 7.9 in 0.0 W/m2 RA
19:05 6.7 °F 5.3 °F 999.2 in West 24.1 mph 24.1 mph 91 % 7.4 in 0.0 W/m2 RA
19:10 6.7 °F 5.3 °F 999.5 in NW 18.5 mph 18.5 mph 91 % 7.6 in 0.0 W/m2 RA
19:13 6.1 °F 4.9 °F 999.5 in NNW 24.1 mph 24.1 mph 92 % 7.1 in 0.0 W/m2 RA
19:15 6.1 °F 4.9 °F 999.5 in WNW 22.2 mph 22.2 mph 92 % 7.1 in 0.0 W/m2 RA
19:20 6.1 °F 4.8 °F 999.5 in NNW 16.1 mph 16.1 mph 91 % 8.6 in 0.0 W/m2 RA
19:26 6.1 °F 4.9 °F 999.5 in WNW 20.4 mph 20.4 mph 92 % 8.6 in 0.0 W/m2 RA
19:31 6.1 °F 4.9 °F 999.9 in WNW 20.4 mph 20.4 mph 92 % 10.7 in 0.0 W/m2 RA
19:34 6.1 °F 4.8 °F 999.9 in West 22.2 mph 22.2 mph 91 % 11.4 in 0.0 W/m2 RA
19:39 5.6 °F 4.3 °F 999.5 in WNW 22.2 mph 22.2 mph 92 % 11.9 in 0.0 W/m2 RA
19:44 5.6 °F 4.3 °F 999.2 in WNW 18.5 mph 18.5 mph 92 % 11.7 in 0.0 W/m2 RA
19:49 5.6 °F 4.3 °F 999.2 in WNW 22.2 mph 22.2 mph 92 % 11.7 in 0.0 W/m2 RA
19:51 5.6 °F 4.3 °F 999.2 in NW 27.8 mph 27.8 mph 92 % 11.4 in 0.0 W/m2 RA
19:56 5.6 °F 4.3 °F 999.2 in NW 18.5 mph 18.5 mph 92 % 11.4 in 0.0 W/m2 RA
20:01 5.6 °F 4.3 °F 999.2 in NNW 16.7 mph 16.7 mph 92 % 11.7 in 0.0 W/m2 RA
20:06 5.6 °F 4.3 °F 999.2 in NNW 18.5 mph 18.5 mph 92 % 10.9 in 0.0 W/m2 RA
20:08 5.6 °F 4.3 °F 998.9 in North 18.5 mph 18.5 mph 92 % 10.7 in 0.0 W/m2 RA
20:13 5.6 °F 4.3 °F 999.2 in North 13.0 mph 13.0 mph 92 % 9.9 in 0.0 W/m2 RA
20:14 5.6 °F 4.3 °F 999.2 in NNW 18.5 mph 18.5 mph 92 % 9.9 in 0.0 W/m2 RA
20:19 5.6 °F 4.3 °F 999.5 in NW 16.7 mph 16.7 mph 92 % 7.9 in 0.0 W/m2
20:24 5.6 °F 4.3 °F 999.2 in WNW 18.5 mph 18.5 mph 92 % 7.6 in 0.0 W/m2 RA
20:29 5.6 °F 4.3 °F 999.5 in WNW 16.7 mph 16.7 mph 92 % 7.9 in 0.0 W/m2 RA
20:34 5.6 °F 4.3 °F 999.9 in WSW 14.8 mph 14.8 mph 92 % 6.1 in 0.0 W/m2 RA
20:37 5.6 °F 4.3 °F 999.2 in NW 12.9 mph 12.9 mph 92 % 5.8 in 0.0 W/m2 RA
20:42 5.6 °F 4.3 °F 999.2 in NNW 13.0 mph 13.0 mph 92 % 5.6 in 0.0 W/m2 RA
20:46 5.6 °F 4.3 °F 999.2 in Calm     92 % 5.3 in 0.0 W/m2 CLR
20:52 5.6 °F 4.3 °F 999.2 in North 18.5 mph 18.5 mph 92 % 5.1 in 0.0 W/m2 CLR
20:56 5.6 °F 4.3 °F 999.2 in WNW 11.1 mph 11.1 mph 92 % 4.3 in 0.0 W/m2 CLR
21:01 5.6 °F 4.3 °F 999.9 in West 18.5 mph 18.5 mph 92 % 4.3 in 0.0 W/m2 CLR
21:03 5.6 °F 4.3 °F 999.9 in West 20.4 mph 20.4 mph 92 % 4.1 in 0.0 W/m2 CLR
21:08 5.6 °F 4.3 °F 999.9 in WNW 25.9 mph 25.9 mph 92 % 3.6 in 0.0 W/m2 RA
21:09 5.6 °F 4.3 °F 999.5 in NW 18.5 mph 18.5 mph 92 % 3.6 in 0.0 W/m2 RA
21:13 5.6 °F 4.3 °F 999.5 in NNW 19.3 mph 19.3 mph 92 % 3.8 in 0.0 W/m2 RA
21:18 5.6 °F 4.3 °F 999.5 in NNW 18.5 mph 18.5 mph 92 % 3.6 in 0.0 W/m2
21:20 5.6 °F 4.3 °F 999.2 in North 19.3 mph 19.3 mph 92 % 3.6 in 0.0 W/m2 CLR
21:24 5.6 °F 4.3 °F 999.2 in NNE 14.8 mph 14.8 mph 92 % 3.3 in 0.0 W/m2 CLR
21:29 5.6 °F 4.3 °F 998.9 in NW 18.5 mph 18.5 mph 92 % 1.8 in 0.0 W/m2 CLR
21:31 5.6 °F 4.3 °F 998.9 in NW 16.7 mph 16.7 mph 92 % 1.5 in 0.0 W/m2 CLR
21:36 5.6 °F 4.3 °F 999.5 in NNE 7.4 mph 7.4 mph 92 % 1.0 in 0.0 W/m2 CLR
21:38 5.6 °F 4.3 °F 999.5 in North 3.7 mph   92 % 1.0 in 0.0 W/m2 CLR
21:43 5.6 °F 4.3 °F 999.9 in Calm     92 % 0.8 in 0.0 W/m2 CLR
21:46 5.6 °F 4.3 °F 1000.2 in Calm     92 % 0.8 in 0.0 W/m2 CLR
21:50 5.6 °F 4.3 °F 1000.2 in Calm     92 % 0.8 in 0.0 W/m2 CLR
21:54 5.6 °F 4.3 °F 1000.9 in West 29.6 mph 29.6 mph 92 % 1.0 in 0.0 W/m2 RA
21:59 5.0 °F 3.8 °F 1000.9 in West 7.4 mph 7.4 mph 92 % 1.5 in 0.0 W/m2 RA
22:05 5.0 °F 3.8 °F 1000.9 in West 17.7 mph 17.7 mph 92 % 2.3 in 0.0 W/m2 RA
22:07 5.0 °F 3.8 °F 1000.9 in West 18.5 mph 18.5 mph 92 % 2.3 in 0.0 W/m2 RA
22:12 5.0 °F 3.8 °F 1001.2 in West 25.9 mph 25.9 mph 92 % 1.8 in 0.0 W/m2
22:15 5.0 °F 3.8 °F 1000.9 in WNW 11.1 mph   92 % 2.0 in 0.0 W/m2 RA
22:20 5.0 °F 3.8 °F 1000.9 in Calm     92 % 2.3 in 0.0 W/m2 RA
22:23 5.0 °F 3.8 °F 1000.6 in NNW 13.0 mph 13.0 mph 92 % 2.3 in 0.0 W/m2 RA
22:28 5.0 °F 3.8 °F 1000.9 in Calm     92 % 2.5 in 0.0 W/m2 RA
22:33 5.0 °F 3.8 °F 1000.6 in Calm     92 % 2.5 in 0.0 W/m2 CLR
22:34 5.0 °F 3.8 °F 1000.9 in Calm     92 % 2.5 in 0.0 W/m2 CLR
22:39 5.0 °F 3.8 °F 1000.6 in Calm     92 % 2.5 in 0.0 W/m2 CLR
22:43 5.0 °F 3.8 °F 1000.6 in Calm     92 % 2.5 in 0.0 W/m2 CLR
22:48 5.0 °F 3.8 °F 1000.9 in Calm     92 % 2.5 in 0.0 W/m2 CLR
22:53 5.0 °F 3.8 °F 1000.6 in Calm     92 % 2.3 in 0.0 W/m2 CLR
22:58 5.0 °F 3.8 °F 1000.6 in Calm     92 % 2.0 in 0.0 W/m2 CLR
23:00 5.0 °F 3.8 °F 1000.6 in Calm     92 % 1.8 in 0.0 W/m2 CLR
23:05 5.0 °F 3.8 °F 1000.9 in Calm     92 % 1.0 in 0.0 W/m2 CLR
23:10 5.0 °F 3.8 °F 1000.9 in Calm     92 % 0.8 in 0.0 W/m2 CLR
23:11 5.0 °F 3.8 °F 1000.9 in Calm     92 % 1.0 in 0.0 W/m2 RA
23:16 5.0 °F 3.8 °F 1000.6 in Calm     92 % 0.8 in 0.0 W/m2
23:22 5.0 °F 3.8 °F 1000.6 in Calm     92 % 0.5 in 0.0 W/m2 CLR
23:23 5.0 °F 3.8 °F 1000.6 in Calm     92 % 0.5 in 0.0 W/m2 CLR
23:28 5.0 °F 3.8 °F 1000.9 in Calm     92 % 0.3 in 0.0 W/m2 CLR
23:33 5.0 °F 3.8 °F 1000.9 in Calm     92 % 0.3 in 0.0 W/m2 CLR
23:38 5.0 °F 3.8 °F 1000.6 in Calm     92 % 0.3 in 0.0 W/m2 CLR
23:41 5.0 °F 3.9 °F 1000.6 in Calm     93 % 0.3 in 0.0 W/m2 CLR
23:46 5.0 °F 3.8 °F 1000.2 in Calm     92 % 0.3 in 0.0 W/m2 CLR
23:51 4.4 °F 3.4 °F 1000.2 in Calm     93 % 0.3 in 0.0 W/m2 CLR
23:52 4.4 °F 3.4 °F 1000.2 in Calm     93 % 0.3 in 0.0 W/m2 CLR
23:57 5.0 °F 3.8 °F 1000.2 in Calm     92 % 0.3 in 0.0 W/m2 CLR
Lo Temps de Massalio
Compliments of Weather Underground - 1.25 mb